Adamsville, Utah
Current Conditions -  °F | °C
As of 4:52 AM on Friday 28 Nov 2014 (Local Time) from KMLF Reporting Station
Clear Clear  
Wind Chill: 27°   Ceiling: Unl
Heat Index: 36°   Visibility: 10mi
Dew Point: 14°   Wind: 14mph
Humidity: 41%   Direction: 210°SSW
Pressure: 30.14"   Gusts: NA
Location:  38.2672°N, 112.728°W
Report Text: KMLF 281152Z AUTO 21012KT 10SM CLR 02/M10 A3014 RMK AO2 SLP192 T00221100 10083 21011 58008 TSNO
Loading
Personal Weather Stations






























Interactive Weather Map New forecast layout! Learn more

10-Day Weather Forecast

Advertisements
Track Severe Weather on mobile